createdAt,value
2018-04-09T00:01:00.087Z,29.67
2018-04-09T00:03:27.759Z,23.40
2018-04-09T00:05:56.241Z,37.40
2018-04-09T00:08:23.941Z,27.13
2018-04-09T00:10:51.730Z,38.83
2018-04-09T00:13:19.393Z,33.93
2018-04-09T00:15:47.112Z,38.57
2018-04-09T00:18:14.834Z,34.37
2018-04-09T00:20:42.472Z,36.60
2018-04-09T00:23:10.148Z,34.33
2018-04-09T00:25:37.803Z,32.13
2018-04-09T00:28:05.460Z,33.20
2018-04-09T00:30:33.128Z,34.37
2018-04-09T00:33:00.812Z,37.90
2018-04-09T00:35:29.216Z,34.70
2018-04-09T00:37:56.889Z,34.07
2018-04-09T00:40:24.682Z,40.30
2018-04-09T00:42:52.329Z,36.47
2018-04-09T00:45:20.053Z,37.80
2018-04-09T00:47:47.736Z,34.43
2018-04-09T00:50:15.392Z,35.93
2018-04-09T00:52:43.064Z,34.77
2018-04-09T00:55:10.785Z,39.23
2018-04-09T00:57:39.225Z,36.40
2018-04-09T01:00:06.982Z,37.63
2018-04-09T01:02:34.697Z,36.97
2018-04-09T01:05:02.389Z,41.07
2018-04-09T01:07:30.108Z,39.63
2018-04-09T01:09:58.565Z,38.67
2018-04-09T01:12:26.245Z,33.67
2018-04-09T01:14:53.947Z,35.23
2018-04-09T01:17:21.643Z,30.80
2018-04-09T01:19:49.336Z,37.33
2018-04-09T01:22:17.031Z,34.47
2018-04-09T01:24:44.720Z,36.43
2018-04-09T01:27:12.423Z,39.33
2018-04-09T01:29:40.131Z,31.87
2018-04-09T01:32:07.823Z,39.23
2018-04-09T01:34:36.328Z,38.00
2018-04-09T01:37:04.004Z,36.53
2018-04-09T01:39:31.671Z,36.57
2018-04-09T01:41:59.327Z,31.63
2018-04-09T01:44:27.005Z,30.07
2018-04-09T01:46:54.667Z,40.50
2018-04-09T01:49:22.321Z,34.50
2018-04-09T01:51:49.991Z,33.67
2018-04-09T01:54:17.657Z,34.10
2018-04-09T01:56:45.321Z,35.93
2018-04-09T01:59:12.993Z,37.63
2018-04-09T02:01:40.692Z,36.20
2018-04-09T02:04:08.343Z,36.90
2018-04-09T02:06:36.780Z,32.80
2018-04-09T02:09:04.633Z,42.60
2018-04-09T02:11:32.301Z,38.87
2018-04-09T02:14:00.032Z,34.20
2018-04-09T02:16:27.721Z,34.67
2018-04-09T02:18:55.372Z,34.27
2018-04-09T02:21:23.083Z,32.67
2018-04-09T02:23:50.791Z,38.10
2018-04-09T02:26:18.479Z,39.30
2018-04-09T02:28:46.141Z,37.17
2018-04-09T02:31:13.857Z,35.80
2018-04-09T02:33:41.618Z,34.03
2018-04-09T02:36:09.324Z,33.90
2018-04-09T02:38:37.297Z,30.67
2018-04-09T02:41:04.992Z,29.80
2018-04-09T02:43:32.668Z,29.93
2018-04-09T02:46:00.351Z,32.90
2018-04-09T02:48:28.081Z,37.27
2018-04-09T02:50:55.756Z,32.10
2018-04-09T02:53:23.426Z,31.23
2018-04-09T02:55:51.144Z,29.90
2018-04-09T02:58:18.907Z,29.20
2018-04-09T03:00:47.404Z,31.43
2018-04-09T03:03:15.084Z,31.03
2018-04-09T03:05:42.816Z,28.70
2018-04-09T03:08:10.520Z,33.27
2018-04-09T03:10:38.197Z,30.27
2018-04-09T03:13:05.897Z,28.07
2018-04-09T03:15:33.585Z,31.13
2018-04-09T03:18:01.244Z,24.63
2018-04-09T03:20:28.912Z,24.00
2018-04-09T03:22:56.587Z,27.80
2018-04-09T03:25:24.255Z,25.40
2018-04-09T03:27:51.943Z,25.70
2018-04-09T03:30:20.446Z,25.60
2018-04-09T03:32:48.092Z,22.80
2018-04-09T03:35:16.571Z,22.20
2018-04-09T03:37:45.036Z,22.73
2018-04-09T03:40:13.624Z,20.43
2018-04-09T03:42:42.080Z,20.93
2018-04-09T03:45:09.782Z,24.77
2018-04-09T03:47:37.435Z,22.57
2018-04-09T03:50:05.887Z,22.27
2018-04-09T03:52:34.635Z,26.57
2018-04-09T03:55:02.275Z,21.50
2018-04-09T03:57:30.012Z,25.20
2018-04-09T03:59:58.469Z,27.53
2018-04-09T04:02:26.128Z,22.50
2018-04-09T04:04:53.826Z,29.57
2018-04-09T04:07:21.533Z,21.03
2018-04-09T04:09:49.219Z,21.47
2018-04-09T04:12:16.900Z,16.43
2018-04-09T04:14:45.358Z,21.33
2018-04-09T04:17:24.806Z,24.63
2018-04-09T04:20:05.206Z,20.23
2018-04-09T04:22:33.977Z,17.90
2018-04-09T04:25:01.676Z,22.90
2018-04-09T04:27:29.373Z,20.00
2018-04-09T04:29:57.100Z,22.33
2018-04-09T04:32:24.811Z,22.70
2018-04-09T04:34:53.212Z,23.83
2018-04-09T04:37:20.955Z,18.80
2018-04-09T04:39:49.436Z,24.83
2018-04-09T04:42:17.096Z,20.10
2018-04-09T04:44:44.813Z,23.50
2018-04-09T04:47:12.520Z,22.07
2018-04-09T04:49:40.209Z,29.03
2018-04-09T04:52:07.996Z,20.60
2018-04-09T04:54:35.731Z,26.30
2018-04-09T04:57:03.395Z,26.97
2018-04-09T04:59:31.065Z,21.80
2018-04-09T05:01:58.732Z,23.80
2018-04-09T05:04:26.485Z,25.50
2018-04-09T05:06:54.149Z,21.03
2018-04-09T05:09:21.819Z,23.90
2018-04-09T05:11:49.494Z,18.03
2018-04-09T05:14:17.953Z,23.27
2018-04-09T05:16:45.619Z,20.57
2018-04-09T05:19:13.271Z,24.60
2018-04-09T05:21:40.990Z,21.80
2018-04-09T05:24:09.573Z,20.30
2018-04-09T05:26:38.029Z,30.57
2018-04-09T05:29:05.698Z,21.20
2018-04-09T05:31:34.181Z,27.80
2018-04-09T05:34:01.830Z,33.30
2018-04-09T05:36:29.520Z,21.57
2018-04-09T05:38:57.219Z,19.63
2018-04-09T05:41:24.861Z,26.03
2018-04-09T05:43:52.545Z,19.67
2018-04-09T05:46:20.366Z,19.30
2018-04-09T05:48:48.036Z,19.33
2018-04-09T05:51:15.720Z,20.87
2018-04-09T05:53:43.465Z,18.70
2018-04-09T05:56:11.117Z,29.63
2018-04-09T05:58:38.782Z,22.70
2018-04-09T06:01:07.282Z,22.57
2018-04-09T06:03:34.937Z,29.03
2018-04-09T06:06:02.617Z,26.97
2018-04-09T06:08:30.356Z,21.73
2018-04-09T06:10:58.792Z,21.07
2018-04-09T06:13:26.485Z,27.00
2018-04-09T06:15:54.159Z,20.03
2018-04-09T06:18:21.833Z,21.90
2018-04-09T06:20:49.524Z,28.63
2018-04-09T06:23:18.164Z,30.90
2018-04-09T06:25:45.849Z,23.27
2018-04-09T06:28:13.623Z,26.03
2018-04-09T06:30:42.088Z,39.30
2018-04-09T06:33:09.733Z,39.60
2018-04-09T06:35:37.464Z,20.60
2018-04-09T06:38:05.217Z,34.60
2018-04-09T06:40:32.956Z,31.83
2018-04-09T06:43:00.652Z,22.93
2018-04-09T06:45:28.413Z,32.23
2018-04-09T06:47:56.851Z,21.07
2018-04-09T06:50:25.348Z,24.33
2018-04-09T06:52:53.252Z,25.93
2018-04-09T06:55:20.953Z,22.20
2018-04-09T06:57:49.476Z,24.63
2018-04-09T07:00:17.293Z,22.17
2018-04-09T07:02:45.036Z,22.20
2018-04-09T07:05:12.748Z,20.87
2018-04-09T07:07:41.241Z,35.97
2018-04-09T07:10:09.052Z,19.93
2018-04-09T07:12:39.140Z,20.70
2018-04-09T07:15:07.259Z,26.20
2018-04-09T07:17:36.264Z,20.30
2018-04-09T07:20:07.202Z,24.83
2018-04-09T07:22:35.163Z,14.17
2018-04-09T07:25:03.989Z,22.80
2018-04-09T07:27:32.961Z,20.90
2018-04-09T07:30:02.394Z,22.70
2018-04-09T07:32:30.331Z,19.80
2018-04-09T07:34:59.537Z,22.60
2018-04-09T07:37:28.241Z,20.17
2018-04-09T07:39:56.007Z,23.17
2018-04-09T07:42:23.921Z,25.80
2018-04-09T07:44:52.390Z,14.37
2018-04-09T07:47:20.080Z,15.20
2018-04-09T07:49:47.775Z,20.50
2018-04-09T07:52:15.405Z,18.40
2018-04-09T07:54:43.084Z,17.10
2018-04-09T07:57:10.787Z,18.10
2018-04-09T07:59:38.456Z,31.83
2018-04-09T08:02:06.916Z,16.70
2018-04-09T08:04:34.621Z,21.23
2018-04-09T08:07:02.303Z,18.23
2018-04-09T08:09:30.056Z,17.60
2018-04-09T08:11:57.813Z,18.87
2018-04-09T08:14:25.544Z,21.77
2018-04-09T08:16:54.038Z,15.93
2018-04-09T08:19:22.569Z,13.90
2018-04-09T08:21:50.207Z,18.50
2018-04-09T08:24:17.897Z,25.67
2018-04-09T08:26:45.603Z,17.40
2018-04-09T08:29:14.089Z,19.83
2018-04-09T08:31:41.756Z,21.20
2018-04-09T08:34:09.455Z,21.63
2018-04-09T08:36:37.120Z,35.40
2018-04-09T08:39:04.859Z,28.97
2018-04-09T08:41:32.566Z,25.47
2018-04-09T08:44:00.196Z,24.30
2018-04-09T08:46:27.865Z,19.70
2018-04-09T08:48:55.566Z,26.50
2018-04-09T08:51:23.989Z,27.60
2018-04-09T08:53:51.643Z,28.40
2018-04-09T08:56:19.311Z,27.63
2018-04-09T08:58:46.964Z,23.10
2018-04-09T09:01:14.653Z,26.63
2018-04-09T09:03:42.358Z,29.60
2018-04-09T09:06:10.027Z,38.73
2018-04-09T09:08:37.732Z,34.47
2018-04-09T09:11:05.456Z,33.70
2018-04-09T09:13:33.112Z,19.03
2018-04-09T09:16:00.795Z,25.63
2018-04-09T09:18:28.468Z,26.37
2018-04-09T09:20:56.119Z,21.73
2018-04-09T09:23:25.374Z,22.93
2018-04-09T09:25:53.169Z,19.10
2018-04-09T09:28:20.821Z,28.33
2018-04-09T09:30:48.507Z,17.87
2018-04-09T09:33:16.236Z,14.17
2018-04-09T09:35:43.882Z,12.33
2018-04-09T09:38:11.575Z,12.50
2018-04-09T09:40:39.256Z,13.57
2018-04-09T09:43:06.905Z,14.50
2018-04-09T09:45:34.577Z,15.57
2018-04-09T09:48:02.311Z,18.00
2018-04-09T09:50:29.978Z,18.50
2018-04-09T09:52:58.477Z,17.87
2018-04-09T09:55:34.980Z,27.80
2018-04-09T09:58:03.528Z,25.83
2018-04-09T10:00:36.724Z,18.13
2018-04-09T10:03:04.503Z,16.13
2018-04-09T10:05:32.204Z,25.87
2018-04-09T10:07:59.875Z,14.17
2018-04-09T10:10:27.585Z,14.20
2018-04-09T10:12:56.064Z,14.00
2018-04-09T10:15:23.725Z,13.20
2018-04-09T10:17:51.391Z,14.63
2018-04-09T10:20:19.158Z,11.40
2018-04-09T10:22:46.824Z,14.03
2018-04-09T10:25:15.271Z,10.10
2018-04-09T10:27:42.952Z,12.00
2018-04-09T10:30:11.346Z,9.00
2018-04-09T10:32:39.068Z,14.90
2018-04-09T10:35:06.772Z,5.47
2018-04-09T10:37:34.418Z,7.90
2018-04-09T10:40:02.885Z,15.33
2018-04-09T10:42:30.548Z,10.73
2018-04-09T10:44:58.193Z,9.13
2018-04-09T10:47:25.882Z,12.07
2018-04-09T10:49:54.306Z,10.00
2018-04-09T10:52:21.943Z,6.03
2018-04-09T10:54:49.613Z,8.30
2018-04-09T10:57:17.264Z,7.43
2018-04-09T10:59:45.680Z,6.00
2018-04-09T11:02:13.338Z,8.83
2018-04-09T11:04:41.047Z,5.47
2018-04-09T11:07:08.697Z,3.70
2018-04-09T11:09:37.175Z,7.00
2018-04-09T11:12:05.632Z,6.83
2018-04-09T11:14:33.351Z,4.07
2018-04-09T11:17:01.091Z,3.10
2018-04-09T11:19:28.788Z,9.13
2018-04-09T11:21:56.436Z,8.70
2018-04-09T11:24:24.120Z,2.17
2018-04-09T11:26:51.788Z,3.43
2018-04-09T11:29:19.444Z,6.63
2018-04-09T11:31:47.103Z,10.53
2018-04-09T11:34:14.748Z,5.43
2018-04-09T11:36:42.364Z,7.70
2018-04-09T11:39:10.782Z,8.03
2018-04-09T11:41:38.439Z,11.43
2018-04-09T11:44:06.894Z,10.43
2018-04-09T11:46:34.545Z,4.97
2018-04-09T11:49:03.028Z,5.43
2018-04-09T11:51:30.741Z,8.00
2018-04-09T11:53:58.402Z,6.30
2018-04-09T11:56:26.086Z,12.37
2018-04-09T11:58:53.728Z,4.10
2018-04-09T12:01:21.427Z,8.70
2018-04-09T12:03:49.857Z,6.97
2018-04-09T12:06:17.509Z,11.37
2018-04-09T12:08:45.187Z,7.00
2018-04-09T12:11:12.855Z,5.90
2018-04-09T12:13:40.536Z,16.93
2018-04-09T12:16:08.961Z,9.87
2018-04-09T12:18:36.616Z,4.43
2018-04-09T12:21:04.241Z,6.50
2018-04-09T12:23:31.908Z,4.60
2018-04-09T12:26:00.347Z,8.10
2018-04-09T12:28:27.988Z,4.70
2018-04-09T12:30:55.650Z,10.70
2018-04-09T12:33:23.314Z,10.83
2018-04-09T12:35:50.944Z,11.97
2018-04-09T12:38:18.728Z,6.90
2018-04-09T12:40:46.411Z,7.40
2018-04-09T12:43:14.055Z,6.07
2018-04-09T12:45:41.722Z,10.30
2018-04-09T12:48:09.384Z,5.67
2018-04-09T12:50:37.019Z,3.47
2018-04-09T12:53:04.715Z,4.03
2018-04-09T12:55:32.395Z,6.47
2018-04-09T12:58:00.780Z,5.97
2018-04-09T13:00:29.200Z,3.20
2018-04-09T13:02:56.862Z,5.47
2018-04-09T13:05:24.510Z,5.57
2018-04-09T13:07:52.198Z,4.07
2018-04-09T13:10:19.877Z,16.13
2018-04-09T13:12:47.559Z,20.70
2018-04-09T13:15:15.230Z,8.33
2018-04-09T13:17:42.890Z,7.90
2018-04-09T13:20:10.526Z,10.20
2018-04-09T13:22:38.964Z,4.97
2018-04-09T13:25:06.652Z,5.27
2018-04-09T13:27:34.284Z,2.20
2018-04-09T13:30:01.946Z,5.37
2018-04-09T13:32:29.633Z,9.90
2018-04-09T13:34:57.254Z,6.43
2018-04-09T13:37:24.929Z,2.23
2018-04-09T13:39:52.589Z,4.03
2018-04-09T13:42:20.316Z,7.07
2018-04-09T13:44:47.958Z,6.00
2018-04-09T13:47:16.417Z,3.50
2018-04-09T13:49:44.076Z,4.73
2018-04-09T13:52:11.750Z,8.10
2018-04-09T13:54:40.185Z,4.33
2018-04-09T13:57:07.878Z,4.00
2018-04-09T13:59:35.560Z,6.23
2018-04-09T14:02:03.246Z,4.23
2018-04-09T14:04:30.869Z,6.40
2018-04-09T14:06:59.370Z,6.53
2018-04-09T14:09:27.026Z,2.47
2018-04-09T14:11:54.674Z,2.33
2018-04-09T14:14:22.346Z,4.07
2018-04-09T14:16:50.055Z,7.13
2018-04-09T14:19:17.746Z,3.83
2018-04-09T14:21:46.222Z,10.30
2018-04-09T14:24:13.928Z,5.70
2018-04-09T14:26:41.602Z,6.23
2018-04-09T14:29:09.262Z,5.70
2018-04-09T14:31:36.932Z,5.10
2018-04-09T14:34:04.591Z,6.70
2018-04-09T14:36:32.253Z,4.27
2018-04-09T14:38:59.892Z,3.10
2018-04-09T14:41:27.509Z,8.67
2018-04-09T14:43:55.173Z,1.80
2018-04-09T14:46:23.611Z,1.80
2018-04-09T14:48:51.240Z,4.33
2018-04-09T14:51:18.918Z,3.23
2018-04-09T14:53:46.583Z,4.83
2018-04-09T14:56:14.219Z,8.10
2018-04-09T14:58:41.936Z,2.73
2018-04-09T15:01:09.617Z,8.50
2018-04-09T15:03:38.047Z,6.30
2018-04-09T15:06:05.703Z,2.60
2018-04-09T15:08:33.369Z,3.20
2018-04-09T15:11:01.024Z,10.70
2018-04-09T15:13:28.762Z,7.57
2018-04-09T15:15:56.483Z,5.27
2018-04-09T15:18:24.143Z,5.80
2018-04-09T15:20:52.608Z,9.30
2018-04-09T15:23:20.286Z,6.20
2018-04-09T15:25:47.932Z,5.90
2018-04-09T15:28:15.680Z,5.00
2018-04-09T15:30:43.367Z,5.83
2018-04-09T15:33:10.996Z,5.97
2018-04-09T15:35:38.690Z,6.10
2018-04-09T15:38:08.496Z,5.20
2018-04-09T15:40:36.548Z,14.67
2018-04-09T15:43:04.768Z,14.40
2018-04-09T15:45:33.550Z,9.07
2018-04-09T15:48:01.568Z,9.00
2018-04-09T15:50:29.904Z,7.80
2018-04-09T15:52:58.997Z,7.83
2018-04-09T15:55:26.820Z,12.70
2018-04-09T15:57:56.740Z,8.67
2018-04-09T16:00:25.467Z,13.53
2018-04-09T16:02:53.487Z,10.17
2018-04-09T16:05:24.115Z,11.50
2018-04-09T16:07:52.330Z,11.00
2018-04-09T16:10:20.347Z,7.73
2018-04-09T16:12:48.277Z,3.43
2018-04-09T16:15:15.948Z,5.70
2018-04-09T16:17:55.502Z,4.60
2018-04-09T16:20:23.149Z,10.47
2018-04-09T16:22:50.822Z,5.60
2018-04-09T16:25:18.479Z,5.33
2018-04-09T16:27:46.147Z,11.83
2018-04-09T16:30:13.810Z,5.50
2018-04-09T16:32:42.235Z,7.37
2018-04-09T16:35:10.687Z,12.03
2018-04-09T16:37:38.352Z,11.03
2018-04-09T16:40:06.039Z,10.03
2018-04-09T16:42:33.700Z,7.00
2018-04-09T16:45:02.129Z,6.17
2018-04-09T16:47:29.802Z,8.20
2018-04-09T16:49:57.506Z,4.70
2018-04-09T16:52:25.132Z,5.63
2018-04-09T16:54:52.906Z,9.67
2018-04-09T16:57:21.345Z,10.20
2018-04-09T16:59:49.028Z,6.00
2018-04-09T17:02:16.677Z,12.33
2018-04-09T17:04:44.350Z,7.87
2018-04-09T17:07:11.966Z,7.53
2018-04-09T17:09:39.648Z,6.63
2018-04-09T17:12:07.362Z,4.50
2018-04-09T17:14:34.994Z,6.27
2018-04-09T17:17:02.658Z,6.50
2018-04-09T17:19:30.339Z,7.30
2018-04-09T17:21:58.733Z,4.53
2018-04-09T17:24:26.406Z,6.33
2018-04-09T17:26:54.073Z,3.60
2018-04-09T17:29:21.721Z,6.23
2018-04-09T17:31:49.387Z,5.73
2018-04-09T17:34:17.111Z,7.20
2018-04-09T17:36:44.819Z,8.53
2018-04-09T17:39:12.487Z,6.17
2018-04-09T17:41:40.157Z,4.00
2018-04-09T17:44:07.829Z,5.03
2018-04-09T17:46:35.519Z,5.33
2018-04-09T17:49:03.979Z,6.37
2018-04-09T17:51:31.661Z,4.73
2018-04-09T17:53:59.365Z,6.20
2018-04-09T17:56:27.108Z,6.10
2018-04-09T17:58:54.947Z,3.53
2018-04-09T18:01:23.440Z,6.27
2018-04-09T18:03:51.139Z,8.40
2018-04-09T18:06:18.809Z,8.40
2018-04-09T18:08:46.667Z,3.53
2018-04-09T18:11:14.446Z,5.53
2018-04-09T18:13:42.572Z,5.57
2018-04-09T18:16:10.399Z,10.03
2018-04-09T18:18:38.476Z,5.00
2018-04-09T18:21:06.370Z,4.40
2018-04-09T18:23:34.034Z,6.07
2018-04-09T18:26:01.787Z,5.30
2018-04-09T18:28:29.675Z,3.40
2018-04-09T18:30:57.545Z,5.80
2018-04-09T18:33:25.389Z,3.13
2018-04-09T18:35:53.290Z,9.80
2018-04-09T18:38:21.241Z,4.60
2018-04-09T18:40:49.236Z,5.80
2018-04-09T18:43:17.018Z,4.90
2018-04-09T18:45:45.560Z,3.47
2018-04-09T18:48:13.280Z,6.70
2018-04-09T18:50:41.099Z,5.90
2018-04-09T18:53:08.953Z,3.50
2018-04-09T18:55:36.662Z,5.60
2018-04-09T18:58:05.182Z,7.33
2018-04-09T19:00:33.024Z,4.83
2018-04-09T19:03:00.836Z,7.27
2018-04-09T19:05:28.807Z,9.97
2018-04-09T19:07:56.627Z,9.80
2018-04-09T19:10:24.509Z,14.20
2018-04-09T19:12:52.437Z,8.80
2018-04-09T19:15:20.294Z,11.47
2018-04-09T19:17:48.190Z,6.90
2018-04-09T19:20:16.056Z,8.13
2018-04-09T19:22:43.986Z,9.83
2018-04-09T19:25:11.884Z,11.83
2018-04-09T19:27:39.718Z,17.87
2018-04-09T19:30:07.542Z,7.70
2018-04-09T19:32:35.326Z,7.17
2018-04-09T19:35:09.138Z,4.40
2018-04-09T19:37:42.485Z,8.73
2018-04-09T19:40:15.825Z,9.37
2018-04-09T19:42:43.562Z,9.13
2018-04-09T19:45:11.250Z,10.47
2018-04-09T19:47:38.951Z,9.90
2018-04-09T19:50:06.846Z,10.67
2018-04-09T19:52:34.495Z,5.70
2018-04-09T19:55:02.259Z,8.60
2018-04-09T19:57:30.013Z,5.90
2018-04-09T19:59:57.707Z,8.70
2018-04-09T20:02:25.538Z,8.07
2018-04-09T20:04:53.285Z,11.80
2018-04-09T20:07:20.960Z,11.50
2018-04-09T20:09:48.714Z,10.97
2018-04-09T20:12:16.409Z,11.13
2018-04-09T20:14:44.082Z,4.53
2018-04-09T20:17:11.752Z,5.13
2018-04-09T20:19:39.449Z,8.33
2018-04-09T20:22:07.186Z,9.77
2018-04-09T20:24:35.677Z,6.40
2018-04-09T20:27:03.484Z,4.57
2018-04-09T20:29:31.221Z,9.23
2018-04-09T20:31:59.170Z,9.50
2018-04-09T20:34:26.994Z,11.60
2018-04-09T20:36:54.693Z,5.77
2018-04-09T20:39:23.437Z,6.20
2018-04-09T20:41:51.339Z,9.27
2018-04-09T20:44:19.097Z,10.80
2018-04-09T20:46:48.063Z,13.57
2018-04-09T20:49:16.165Z,6.33
2018-04-09T20:51:44.690Z,9.60
2018-04-09T20:54:12.718Z,13.80
2018-04-09T20:56:40.935Z,9.37
2018-04-09T20:59:08.895Z,5.30
2018-04-09T21:01:37.234Z,10.80
2018-04-09T21:04:05.403Z,7.50
2018-04-09T21:06:37.126Z,7.30
2018-04-09T21:09:05.699Z,16.07
2018-04-09T21:11:33.668Z,11.83
2018-04-09T21:14:02.557Z,7.57
2018-04-09T21:16:30.448Z,6.40
2018-04-09T21:18:58.961Z,8.10
2018-04-09T21:21:26.714Z,8.40
2018-04-09T21:23:54.523Z,4.60
2018-04-09T21:26:24.147Z,4.47
2018-04-09T21:28:51.949Z,10.23
2018-04-09T21:31:20.734Z,4.70
2018-04-09T21:33:49.354Z,6.50
2018-04-09T21:36:18.271Z,10.10
2018-04-09T21:38:46.955Z,6.77
2018-04-09T21:41:16.802Z,6.90
2018-04-09T21:43:44.564Z,8.07
2018-04-09T21:46:12.254Z,5.97
2018-04-09T21:48:40.727Z,7.57
2018-04-09T21:51:08.437Z,7.37
2018-04-09T21:53:36.097Z,10.83
2018-04-09T21:56:04.767Z,7.77
2018-04-09T21:58:32.440Z,10.03
2018-04-09T22:01:00.901Z,8.97
2018-04-09T22:03:28.553Z,8.03
2018-04-09T22:05:56.246Z,7.60
2018-04-09T22:08:23.928Z,10.43
2018-04-09T22:10:51.713Z,10.73
2018-04-09T22:13:19.415Z,5.53
2018-04-09T22:15:47.159Z,8.10
2018-04-09T22:18:14.840Z,9.20
2018-04-09T22:20:42.551Z,8.33
2018-04-09T22:23:10.214Z,5.00
2018-04-09T22:25:37.879Z,9.80
2018-04-09T22:28:05.557Z,8.70
2018-04-09T22:30:33.287Z,7.60
2018-04-09T22:33:00.973Z,4.40
2018-04-09T22:35:28.663Z,9.53
2018-04-09T22:37:56.452Z,6.73
2018-04-09T22:40:24.157Z,15.63
2018-04-09T22:42:51.946Z,10.90
2018-04-09T22:45:19.617Z,6.00
2018-04-09T22:47:48.052Z,6.87
2018-04-09T22:50:15.750Z,14.53
2018-04-09T22:52:43.432Z,7.00
2018-04-09T22:55:11.894Z,7.47
2018-04-09T22:57:39.646Z,20.87
2018-04-09T23:00:08.267Z,10.87
2018-04-09T23:02:35.937Z,7.33
2018-04-09T23:05:03.671Z,7.17
2018-04-09T23:07:31.353Z,9.43
2018-04-09T23:09:59.054Z,14.90
2018-04-09T23:12:26.757Z,9.13
2018-04-09T23:14:55.253Z,4.90
2018-04-09T23:17:22.906Z,5.90
2018-04-09T23:19:50.581Z,7.23
2018-04-09T23:22:29.990Z,5.90
2018-04-09T23:24:58.505Z,13.20
2018-04-09T23:27:26.233Z,10.40
2018-04-09T23:29:54.649Z,13.47
2018-04-09T23:32:22.361Z,4.47
2018-04-09T23:34:50.070Z,6.37
2018-04-09T23:37:17.852Z,7.13
2018-04-09T23:39:45.609Z,8.37
2018-04-09T23:42:13.339Z,6.23
2018-04-09T23:44:40.997Z,6.27
2018-04-09T23:47:08.670Z,7.03
2018-04-09T23:49:36.381Z,8.43
2018-04-09T23:52:04.046Z,5.80
2018-04-09T23:54:31.735Z,8.63
2018-04-09T23:56:59.498Z,14.23
2018-04-09T23:59:27.156Z,8.93
